sensor_id;sensor_type;location;lat;lon;timestamp;pressure;altitude;pressure_sealevel;temperature;humidity
54369;BME280;40266;52.434;17.056;2022-12-16T00:02:38;100322.30;;;-10.89;85.40
54369;BME280;40266;52.434;17.056;2022-12-16T00:05:21;100320.19;;;-10.91;85.54
54369;BME280;40266;52.434;17.056;2022-12-16T00:08:04;100318.94;;;-10.92;85.34
54369;BME280;40266;52.434;17.056;2022-12-16T00:10:47;100327.66;;;-10.93;85.59
54369;BME280;40266;52.434;17.056;2022-12-16T00:13:38;100332.58;;;-10.92;85.78
54369;BME280;40266;52.434;17.056;2022-12-16T00:16:23;100331.04;;;-10.92;85.50
54369;BME280;40266;52.434;17.056;2022-12-16T00:19:06;100333.41;;;-10.92;85.67
54369;BME280;40266;52.434;17.056;2022-12-16T00:21:49;100330.91;;;-10.92;85.62
54369;BME280;40266;52.434;17.056;2022-12-16T00:24:33;100332.27;;;-10.92;85.72
54369;BME280;40266;52.434;17.056;2022-12-16T00:27:16;100332.75;;;-10.92;85.54
54369;BME280;40266;52.434;17.056;2022-12-16T00:29:58;100330.39;;;-10.92;85.65
54369;BME280;40266;52.434;17.056;2022-12-16T00:32:41;100341.63;;;-10.90;85.84
54369;BME280;40266;52.434;17.056;2022-12-16T00:35:24;100342.40;;;-10.89;86.04
54369;BME280;40266;52.434;17.056;2022-12-16T00:38:07;100348.48;;;-10.86;85.90
54369;BME280;40266;52.434;17.056;2022-12-16T00:40:50;100352.77;;;-10.85;85.91
54369;BME280;40266;52.434;17.056;2022-12-16T00:43:34;100360.55;;;-10.82;86.21
54369;BME280;40266;52.434;17.056;2022-12-16T00:46:18;100362.70;;;-10.77;86.15
54369;BME280;40266;52.434;17.056;2022-12-16T00:49:01;100365.55;;;-10.72;86.20
54369;BME280;40266;52.434;17.056;2022-12-16T00:51:43;100361.84;;;-10.67;86.37
54369;BME280;40266;52.434;17.056;2022-12-16T00:54:26;100354.84;;;-10.62;86.36
54369;BME280;40266;52.434;17.056;2022-12-16T00:57:09;100353.19;;;-10.59;86.27
54369;BME280;40266;52.434;17.056;2022-12-16T00:59:52;100347.70;;;-10.55;86.18
54369;BME280;40266;52.434;17.056;2022-12-16T01:02:36;100350.94;;;-10.51;86.28
54369;BME280;40266;52.434;17.056;2022-12-16T01:05:21;100345.06;;;-10.48;86.46
54369;BME280;40266;52.434;17.056;2022-12-16T01:08:08;100342.48;;;-10.46;86.33
54369;BME280;40266;52.434;17.056;2022-12-16T01:10:54;100341.23;;;-10.45;86.27
54369;BME280;40266;52.434;17.056;2022-12-16T01:13:37;100341.73;;;-10.42;86.32
54369;BME280;40266;52.434;17.056;2022-12-16T01:16:21;100343.55;;;-10.43;86.06
54369;BME280;40266;52.434;17.056;2022-12-16T01:19:04;100337.21;;;-10.44;85.98
54369;BME280;40266;52.434;17.056;2022-12-16T01:21:46;100333.39;;;-10.46;85.94
54369;BME280;40266;52.434;17.056;2022-12-16T01:24:29;100333.98;;;-10.47;85.77
54369;BME280;40266;52.434;17.056;2022-12-16T01:27:13;100330.30;;;-10.47;85.93
54369;BME280;40266;52.434;17.056;2022-12-16T01:29:57;100321.29;;;-10.48;85.79
54369;BME280;40266;52.434;17.056;2022-12-16T01:32:39;100320.12;;;-10.51;85.62
54369;BME280;40266;52.434;17.056;2022-12-16T01:35:22;100319.98;;;-10.50;85.77
54369;BME280;40266;52.434;17.056;2022-12-16T01:38:25;100315.95;;;-10.50;85.85
54369;BME280;40266;52.434;17.056;2022-12-16T01:41:09;100313.96;;;-10.52;85.74
54369;BME280;40266;52.434;17.056;2022-12-16T01:44:14;100316.41;;;-10.53;85.65
54369;BME280;40266;52.434;17.056;2022-12-16T01:47:02;100318.71;;;-10.54;85.78
54369;BME280;40266;52.434;17.056;2022-12-16T01:52:40;100314.39;;;-10.53;85.88
54369;BME280;40266;52.434;17.056;2022-12-16T01:55:31;100316.21;;;-10.54;85.85
54369;BME280;40266;52.434;17.056;2022-12-16T01:58:24;100316.77;;;-10.56;85.77
54369;BME280;40266;52.434;17.056;2022-12-16T02:01:08;100316.34;;;-10.60;85.45
54369;BME280;40266;52.434;17.056;2022-12-16T02:03:53;100316.40;;;-10.62;85.55
54369;BME280;40266;52.434;17.056;2022-12-16T02:06:37;100313.31;;;-10.63;85.58
54369;BME280;40266;52.434;17.056;2022-12-16T02:09:20;100306.33;;;-10.64;85.64
54369;BME280;40266;52.434;17.056;2022-12-16T02:12:14;100298.44;;;-10.66;85.66
54369;BME280;40266;52.434;17.056;2022-12-16T02:15:13;100295.82;;;-10.67;85.62
54369;BME280;40266;52.434;17.056;2022-12-16T02:18:11;100296.19;;;-10.66;85.49
54369;BME280;40266;52.434;17.056;2022-12-16T02:24:22;100290.63;;;-10.64;85.80
54369;BME280;40266;52.434;17.056;2022-12-16T02:33:06;100285.15;;;-10.51;86.39
54369;BME280;40266;52.434;17.056;2022-12-16T02:36:25;100285.27;;;-10.46;86.55
54369;BME280;40266;52.434;17.056;2022-12-16T02:39:38;100284.02;;;-10.42;86.32
54369;BME280;40266;52.434;17.056;2022-12-16T02:42:29;100276.02;;;-10.37;86.70
54369;BME280;40266;52.434;17.056;2022-12-16T02:45:22;100268.39;;;-10.32;86.75
54369;BME280;40266;52.434;17.056;2022-12-16T02:48:07;100274.09;;;-10.26;86.71
54369;BME280;40266;52.434;17.056;2022-12-16T02:50:50;100270.60;;;-10.22;86.75
54369;BME280;40266;52.434;17.056;2022-12-16T02:53:35;100269.20;;;-10.17;87.06
54369;BME280;40266;52.434;17.056;2022-12-16T02:56:33;100266.80;;;-10.12;86.93
54369;BME280;40266;52.434;17.056;2022-12-16T02:59:26;100265.93;;;-10.04;87.26
54369;BME280;40266;52.434;17.056;2022-12-16T03:02:46;100261.49;;;-9.96;87.33
54369;BME280;40266;52.434;17.056;2022-12-16T03:05:41;100262.45;;;-9.88;87.27
54369;BME280;40266;52.434;17.056;2022-12-16T03:08:32;100265.85;;;-9.82;87.23
54369;BME280;40266;52.434;17.056;2022-12-16T03:11:16;100260.42;;;-9.76;87.41
54369;BME280;40266;52.434;17.056;2022-12-16T03:14:00;100252.78;;;-9.71;87.17
54369;BME280;40266;52.434;17.056;2022-12-16T03:16:45;100247.18;;;-9.65;87.36
54369;BME280;40266;52.434;17.056;2022-12-16T03:19:30;100241.46;;;-9.59;87.85
54369;BME280;40266;52.434;17.056;2022-12-16T03:22:33;100239.67;;;-9.51;87.77
54369;BME280;40266;52.434;17.056;2022-12-16T03:25:20;100238.77;;;-9.43;88.14
54369;BME280;40266;52.434;17.056;2022-12-16T03:34:55;100247.20;;;-9.19;88.17
54369;BME280;40266;52.434;17.056;2022-12-16T03:37:42;100246.30;;;-9.10;88.71
54369;BME280;40266;52.434;17.056;2022-12-16T03:40:27;100234.88;;;-9.03;88.92
54369;BME280;40266;52.434;17.056;2022-12-16T03:43:12;100235.02;;;-8.94;89.27
54369;BME280;40266;52.434;17.056;2022-12-16T03:46:03;100234.52;;;-8.84;89.34
54369;BME280;40266;52.434;17.056;2022-12-16T03:48:49;100233.41;;;-8.77;89.55
54369;BME280;40266;52.434;17.056;2022-12-16T03:51:33;100224.39;;;-8.67;89.57
54369;BME280;40266;52.434;17.056;2022-12-16T03:54:16;100226.66;;;-8.60;89.63
54369;BME280;40266;52.434;17.056;2022-12-16T03:57:00;100221.83;;;-8.52;89.51
54369;BME280;40266;52.434;17.056;2022-12-16T03:59:43;100218.16;;;-8.44;89.59
54369;BME280;40266;52.434;17.056;2022-12-16T04:02:26;100220.64;;;-8.38;89.83
54369;BME280;40266;52.434;17.056;2022-12-16T04:05:09;100225.83;;;-8.33;89.52
54369;BME280;40266;52.434;17.056;2022-12-16T04:07:52;100232.64;;;-8.29;89.56
54369;BME280;40266;52.434;17.056;2022-12-16T04:10:39;100235.73;;;-8.24;89.78
54369;BME280;40266;52.434;17.056;2022-12-16T04:13:40;100227.16;;;-8.19;89.72
54369;BME280;40266;52.434;17.056;2022-12-16T04:16:42;100220.71;;;-8.16;89.74
54369;BME280;40266;52.434;17.056;2022-12-16T04:19:45;100215.02;;;-8.12;89.86
54369;BME280;40266;52.434;17.056;2022-12-16T04:22:46;100219.11;;;-8.08;89.80
54369;BME280;40266;52.434;17.056;2022-12-16T04:25:48;100216.35;;;-8.05;89.55
54369;BME280;40266;52.434;17.056;2022-12-16T04:28:31;100218.44;;;-8.03;89.64
54369;BME280;40266;52.434;17.056;2022-12-16T04:31:14;100216.36;;;-8.01;89.57
54369;BME280;40266;52.434;17.056;2022-12-16T04:33:57;100212.71;;;-8.00;89.77
54369;BME280;40266;52.434;17.056;2022-12-16T04:37:00;100212.02;;;-7.96;89.71
54369;BME280;40266;52.434;17.056;2022-12-16T04:40:03;100209.80;;;-7.93;89.69
54369;BME280;40266;52.434;17.056;2022-12-16T04:43:04;100213.09;;;-7.92;89.66
54369;BME280;40266;52.434;17.056;2022-12-16T04:46:06;100214.05;;;-7.90;89.63
54369;BME280;40266;52.434;17.056;2022-12-16T04:49:07;100213.96;;;-7.88;89.57
54369;BME280;40266;52.434;17.056;2022-12-16T04:52:09;100210.48;;;-7.87;89.52
54369;BME280;40266;52.434;17.056;2022-12-16T04:55:11;100202.40;;;-7.85;89.57
54369;BME280;40266;52.434;17.056;2022-12-16T04:58:13;100199.80;;;-7.83;89.68
54369;BME280;40266;52.434;17.056;2022-12-16T05:01:14;100200.11;;;-7.80;90.04
54369;BME280;40266;52.434;17.056;2022-12-16T05:04:15;100203.08;;;-7.78;90.00
54369;BME280;40266;52.434;17.056;2022-12-16T05:07:17;100205.27;;;-7.75;90.12
54369;BME280;40266;52.434;17.056;2022-12-16T05:10:23;100203.08;;;-7.71;90.18
54369;BME280;40266;52.434;17.056;2022-12-16T05:13:25;100214.63;;;-7.67;90.20
54369;BME280;40266;52.434;17.056;2022-12-16T05:16:26;100222.77;;;-7.64;90.43
54369;BME280;40266;52.434;17.056;2022-12-16T05:19:28;100225.95;;;-7.61;90.31
54369;BME280;40266;52.434;17.056;2022-12-16T05:22:30;100225.91;;;-7.58;90.39
54369;BME280;40266;52.434;17.056;2022-12-16T05:25:33;100238.46;;;-7.55;90.56
54369;BME280;40266;52.434;17.056;2022-12-16T05:28:34;100242.17;;;-7.52;90.58
54369;BME280;40266;52.434;17.056;2022-12-16T05:31:36;100239.13;;;-7.48;90.62
54369;BME280;40266;52.434;17.056;2022-12-16T05:34:48;100237.23;;;-7.45;90.55
54369;BME280;40266;52.434;17.056;2022-12-16T05:37:50;100245.47;;;-7.43;90.53
54369;BME280;40266;52.434;17.056;2022-12-16T05:40:51;100252.98;;;-7.38;90.53
54369;BME280;40266;52.434;17.056;2022-12-16T05:43:52;100259.30;;;-7.34;90.74
54369;BME280;40266;52.434;17.056;2022-12-16T05:46:54;100259.70;;;-7.29;90.42
54369;BME280;40266;52.434;17.056;2022-12-16T05:49:55;100261.23;;;-7.25;90.62
54369;BME280;40266;52.434;17.056;2022-12-16T05:52:57;100267.16;;;-7.22;90.82
54369;BME280;40266;52.434;17.056;2022-12-16T05:55:59;100271.88;;;-7.19;90.78
54369;BME280;40266;52.434;17.056;2022-12-16T05:59:01;100272.73;;;-7.15;90.80
54369;BME280;40266;52.434;17.056;2022-12-16T06:02:03;100282.73;;;-7.12;90.74
54369;BME280;40266;52.434;17.056;2022-12-16T06:05:05;100280.13;;;-7.10;90.91
54369;BME280;40266;52.434;17.056;2022-12-16T06:08:07;100285.85;;;-7.07;90.91
54369;BME280;40266;52.434;17.056;2022-12-16T06:11:09;100289.46;;;-7.06;90.65
54369;BME280;40266;52.434;17.056;2022-12-16T06:14:10;100294.79;;;-7.05;90.86
54369;BME280;40266;52.434;17.056;2022-12-16T06:17:12;100297.09;;;-7.03;90.88
54369;BME280;40266;52.434;17.056;2022-12-16T06:20:14;100299.88;;;-7.01;90.93
54369;BME280;40266;52.434;17.056;2022-12-16T06:23:16;100308.33;;;-6.98;90.91
54369;BME280;40266;52.434;17.056;2022-12-16T06:26:18;100314.77;;;-6.95;90.94
54369;BME280;40266;52.434;17.056;2022-12-16T06:29:20;100313.38;;;-6.92;90.86
54369;BME280;40266;52.434;17.056;2022-12-16T06:32:22;100308.35;;;-6.90;90.95
54369;BME280;40266;52.434;17.056;2022-12-16T06:35:23;100308.63;;;-6.88;90.90
54369;BME280;40266;52.434;17.056;2022-12-16T06:38:25;100305.98;;;-6.87;90.95
54369;BME280;40266;52.434;17.056;2022-12-16T06:41:26;100311.68;;;-6.84;90.99
54369;BME280;40266;52.434;17.056;2022-12-16T06:44:29;100313.30;;;-6.83;91.02
54369;BME280;40266;52.434;17.056;2022-12-16T06:47:30;100311.67;;;-6.81;90.91
54369;BME280;40266;52.434;17.056;2022-12-16T06:50:33;100314.47;;;-6.79;90.86
54369;BME280;40266;52.434;17.056;2022-12-16T06:53:37;100319.11;;;-6.78;91.03
54369;BME280;40266;52.434;17.056;2022-12-16T06:56:39;100320.39;;;-6.76;91.03
54369;BME280;40266;52.434;17.056;2022-12-16T06:59:40;100321.70;;;-6.74;90.99
54369;BME280;40266;52.434;17.056;2022-12-16T07:02:43;100324.36;;;-6.71;91.17
54369;BME280;40266;52.434;17.056;2022-12-16T07:05:44;100328.73;;;-6.68;91.39
54369;BME280;40266;52.434;17.056;2022-12-16T07:08:46;100326.52;;;-6.65;91.23
54369;BME280;40266;52.434;17.056;2022-12-16T07:11:48;100327.65;;;-6.62;91.46
54369;BME280;40266;52.434;17.056;2022-12-16T07:14:49;100328.52;;;-6.58;91.56
54369;BME280;40266;52.434;17.056;2022-12-16T07:17:51;100329.83;;;-6.56;91.53
54369;BME280;40266;52.434;17.056;2022-12-16T07:20:52;100333.06;;;-6.52;91.57
54369;BME280;40266;52.434;17.056;2022-12-16T07:23:54;100338.55;;;-6.47;91.57
54369;BME280;40266;52.434;17.056;2022-12-16T07:26:55;100336.68;;;-6.43;91.71
54369;BME280;40266;52.434;17.056;2022-12-16T07:29:56;100346.16;;;-6.40;91.75
54369;BME280;40266;52.434;17.056;2022-12-16T07:32:58;100345.30;;;-6.37;91.56
54369;BME280;40266;52.434;17.056;2022-12-16T07:35:59;100349.92;;;-6.32;91.73
54369;BME280;40266;52.434;17.056;2022-12-16T07:39:01;100351.64;;;-6.28;91.67
54369;BME280;40266;52.434;17.056;2022-12-16T07:42:03;100354.46;;;-6.25;91.72
54369;BME280;40266;52.434;17.056;2022-12-16T07:45:05;100355.35;;;-6.21;91.67
54369;BME280;40266;52.434;17.056;2022-12-16T07:48:07;100357.02;;;-6.18;91.81
54369;BME280;40266;52.434;17.056;2022-12-16T07:51:09;100357.34;;;-6.14;91.72
54369;BME280;40266;52.434;17.056;2022-12-16T07:54:10;100358.39;;;-6.10;91.73
54369;BME280;40266;52.434;17.056;2022-12-16T07:57:12;100359.56;;;-6.06;91.75
54369;BME280;40266;52.434;17.056;2022-12-16T08:00:13;100354.16;;;-6.02;91.85
54369;BME280;40266;52.434;17.056;2022-12-16T08:03:15;100349.93;;;-5.97;91.85
54369;BME280;40266;52.434;17.056;2022-12-16T08:06:17;100347.94;;;-5.91;91.93
54369;BME280;40266;52.434;17.056;2022-12-16T08:09:22;100344.08;;;-5.87;92.00
54369;BME280;40266;52.434;17.056;2022-12-16T08:12:23;100347.98;;;-5.83;91.91
54369;BME280;40266;52.434;17.056;2022-12-16T08:15:25;100347.95;;;-5.79;91.99
54369;BME280;40266;52.434;17.056;2022-12-16T08:18:26;100345.39;;;-5.76;92.04
54369;BME280;40266;52.434;17.056;2022-12-16T08:21:28;100347.11;;;-5.71;92.17
54369;BME280;40266;52.434;17.056;2022-12-16T08:24:29;100348.25;;;-5.64;92.19
54369;BME280;40266;52.434;17.056;2022-12-16T08:27:37;100351.92;;;-5.58;92.17
54369;BME280;40266;52.434;17.056;2022-12-16T08:30:39;100347.04;;;-5.53;92.21
54369;BME280;40266;52.434;17.056;2022-12-16T08:33:41;100351.70;;;-5.47;92.30
54369;BME280;40266;52.434;17.056;2022-12-16T08:36:42;100350.01;;;-5.42;92.29
54369;BME280;40266;52.434;17.056;2022-12-16T08:39:44;100352.83;;;-5.36;92.40
54369;BME280;40266;52.434;17.056;2022-12-16T08:43:05;100354.14;;;-5.33;92.26
54369;BME280;40266;52.434;17.056;2022-12-16T08:46:06;100355.30;;;-5.30;92.32
54369;BME280;40266;52.434;17.056;2022-12-16T08:49:08;100351.66;;;-5.27;92.28
54369;BME280;40266;52.434;17.056;2022-12-16T08:52:12;100352.81;;;-5.24;92.28
54369;BME280;40266;52.434;17.056;2022-12-16T08:55:13;100357.55;;;-5.21;92.21
54369;BME280;40266;52.434;17.056;2022-12-16T08:58:14;100356.80;;;-5.18;92.20
54369;BME280;40266;52.434;17.056;2022-12-16T09:01:16;100358.38;;;-5.13;92.33
54369;BME280;40266;52.434;17.056;2022-12-16T09:04:18;100362.51;;;-5.08;92.51
54369;BME280;40266;52.434;17.056;2022-12-16T09:07:19;100356.91;;;-5.03;92.25
54369;BME280;40266;52.434;17.056;2022-12-16T09:10:21;100353.77;;;-5.00;92.27
54369;BME280;40266;52.434;17.056;2022-12-16T09:13:22;100359.39;;;-4.96;92.25
54369;BME280;40266;52.434;17.056;2022-12-16T09:16:24;100354.31;;;-4.91;92.42
54369;BME280;40266;52.434;17.056;2022-12-16T09:19:25;100347.29;;;-4.88;92.32
54369;BME280;40266;52.434;17.056;2022-12-16T09:22:26;100347.70;;;-4.86;92.34
54369;BME280;40266;52.434;17.056;2022-12-16T09:25:28;100341.88;;;-4.82;92.33
54369;BME280;40266;52.434;17.056;2022-12-16T09:28:30;100339.13;;;-4.78;92.35
54369;BME280;40266;52.434;17.056;2022-12-16T09:31:31;100336.77;;;-4.74;92.36
54369;BME280;40266;52.434;17.056;2022-12-16T09:34:33;100339.20;;;-4.68;92.45
54369;BME280;40266;52.434;17.056;2022-12-16T09:37:34;100339.06;;;-4.62;92.48
54369;BME280;40266;52.434;17.056;2022-12-16T09:40:41;100334.95;;;-4.59;92.59
54369;BME280;40266;52.434;17.056;2022-12-16T09:43:58;100331.34;;;-4.50;92.74
54369;BME280;40266;52.434;17.056;2022-12-16T09:47:30;100327.15;;;-4.44;92.48
54369;BME280;40266;52.434;17.056;2022-12-16T09:50:38;100330.10;;;-4.38;92.53
54369;BME280;40266;52.434;17.056;2022-12-16T09:53:41;100331.06;;;-4.35;92.54
54369;BME280;40266;52.434;17.056;2022-12-16T09:56:44;100330.77;;;-4.29;92.40
54369;BME280;40266;52.434;17.056;2022-12-16T09:59:54;100331.81;;;-4.24;92.32
54369;BME280;40266;52.434;17.056;2022-12-16T10:02:58;100332.55;;;-4.18;92.46
54369;BME280;40266;52.434;17.056;2022-12-16T10:06:13;100335.23;;;-4.10;92.35
54369;BME280;40266;52.434;17.056;2022-12-16T10:12:31;100332.56;;;-3.98;92.32
54369;BME280;40266;52.434;17.056;2022-12-16T10:15:48;100331.59;;;-3.96;92.14
54369;BME280;40266;52.434;17.056;2022-12-16T10:19:27;100324.88;;;-3.94;92.06
54369;BME280;40266;52.434;17.056;2022-12-16T10:22:43;100320.44;;;-3.94;91.84
54369;BME280;40266;52.434;17.056;2022-12-16T10:29:13;100321.65;;;-3.89;91.91
54369;BME280;40266;52.434;17.056;2022-12-16T10:35:50;100332.42;;;-3.83;91.73
54369;BME280;40266;52.434;17.056;2022-12-16T10:38:57;100335.17;;;-3.77;91.74
54369;BME280;40266;52.434;17.056;2022-12-16T10:42:01;100335.71;;;-3.77;91.61
54369;BME280;40266;52.434;17.056;2022-12-16T10:45:06;100343.02;;;-3.72;91.74
54369;BME280;40266;52.434;17.056;2022-12-16T10:48:12;100344.42;;;-3.67;91.65
54369;BME280;40266;52.434;17.056;2022-12-16T10:51:19;100344.50;;;-3.65;91.52
54369;BME280;40266;52.434;17.056;2022-12-16T10:54:28;100347.03;;;-3.61;91.42
54369;BME280;40266;52.434;17.056;2022-12-16T11:00:49;100344.81;;;-3.60;91.13
54369;BME280;40266;52.434;17.056;2022-12-16T11:03:51;100343.71;;;-3.63;91.12
54369;BME280;40266;52.434;17.056;2022-12-16T11:06:53;100340.84;;;-3.62;91.16
54369;BME280;40266;52.434;17.056;2022-12-16T11:09:55;100343.00;;;-3.58;91.24
54369;BME280;40266;52.434;17.056;2022-12-16T11:13:13;100343.73;;;-3.56;91.22
54369;BME280;40266;52.434;17.056;2022-12-16T11:16:25;100337.42;;;-3.52;91.26
54369;BME280;40266;52.434;17.056;2022-12-16T11:19:28;100337.86;;;-3.49;91.29
54369;BME280;40266;52.434;17.056;2022-12-16T11:22:38;100339.96;;;-3.47;91.19
54369;BME280;40266;52.434;17.056;2022-12-16T11:25:39;100342.03;;;-3.46;91.11
54369;BME280;40266;52.434;17.056;2022-12-16T11:28:41;100345.96;;;-3.46;91.02
54369;BME280;40266;52.434;17.056;2022-12-16T11:31:42;100356.09;;;-3.45;90.91
54369;BME280;40266;52.434;17.056;2022-12-16T11:34:55;100357.79;;;-3.50;90.50
54369;BME280;40266;52.434;17.056;2022-12-16T11:38:03;100362.37;;;-3.56;90.29
54369;BME280;40266;52.434;17.056;2022-12-16T11:41:20;100361.20;;;-3.61;90.41
54369;BME280;40266;52.434;17.056;2022-12-16T11:44:41;100361.73;;;-3.60;90.43
54369;BME280;40266;52.434;17.056;2022-12-16T11:47:55;100364.67;;;-3.58;90.30
54369;BME280;40266;52.434;17.056;2022-12-16T11:51:00;100373.02;;;-3.58;90.30
54369;BME280;40266;52.434;17.056;2022-12-16T11:57:12;100376.48;;;-3.63;90.25
54369;BME280;40266;52.434;17.056;2022-12-16T12:00:18;100385.37;;;-3.63;90.09
54369;BME280;40266;52.434;17.056;2022-12-16T12:03:23;100389.13;;;-3.63;90.14
54369;BME280;40266;52.434;17.056;2022-12-16T12:06:59;100391.08;;;-3.60;90.19
54369;BME280;40266;52.434;17.056;2022-12-16T12:17:01;100392.10;;;-3.55;89.90
54369;BME280;40266;52.434;17.056;2022-12-16T12:23:10;100403.89;;;-3.55;89.95
54369;BME280;40266;52.434;17.056;2022-12-16T12:26:17;100406.02;;;-3.52;90.12
54369;BME280;40266;52.434;17.056;2022-12-16T12:44:30;100415.89;;;-3.44;89.74
54369;BME280;40266;52.434;17.056;2022-12-16T12:47:06;100414.38;;;-3.43;89.56
54369;BME280;40266;52.434;17.056;2022-12-16T12:50:22;100412.91;;;-3.46;89.32
54369;BME280;40266;52.434;17.056;2022-12-16T12:53:41;100414.38;;;-3.48;89.32
54369;BME280;40266;52.434;17.056;2022-12-16T12:56:51;100415.05;;;-3.52;89.27
54369;BME280;40266;52.434;17.056;2022-12-16T13:00:02;100426.41;;;-3.55;89.32
54369;BME280;40266;52.434;17.056;2022-12-16T13:03:22;100426.95;;;-3.59;89.12
54369;BME280;40266;52.434;17.056;2022-12-16T13:06:28;100422.65;;;-3.70;88.91
54369;BME280;40266;52.434;17.056;2022-12-16T13:12:35;100429.04;;;-3.72;89.28
54369;BME280;40266;52.434;17.056;2022-12-16T13:15:38;100436.17;;;-3.69;89.41
54369;BME280;40266;52.434;17.056;2022-12-16T13:18:40;100441.41;;;-3.70;89.23
54369;BME280;40266;52.434;17.056;2022-12-16T13:21:45;100447.05;;;-3.70;89.30
54369;BME280;40266;52.434;17.056;2022-12-16T13:24:49;100450.09;;;-3.71;89.18
54369;BME280;40266;52.434;17.056;2022-12-16T13:27:55;100447.27;;;-3.73;89.18
54369;BME280;40266;52.434;17.056;2022-12-16T13:31:02;100448.29;;;-3.74;89.18
54369;BME280;40266;52.434;17.056;2022-12-16T13:37:33;100459.72;;;-3.73;89.11
54369;BME280;40266;52.434;17.056;2022-12-16T13:41:00;100463.81;;;-3.78;88.66
54369;BME280;40266;52.434;17.056;2022-12-16T13:44:02;100468.81;;;-3.81;88.78
54369;BME280;40266;52.434;17.056;2022-12-16T13:47:34;100468.34;;;-3.80;88.91
54369;BME280;40266;52.434;17.056;2022-12-16T13:50:42;100464.23;;;-3.81;88.87
54369;BME280;40266;52.434;17.056;2022-12-16T13:53:49;100468.31;;;-3.81;88.90
54369;BME280;40266;52.434;17.056;2022-12-16T13:56:53;100463.71;;;-3.86;88.70
54369;BME280;40266;52.434;17.056;2022-12-16T13:59:57;100464.16;;;-3.88;88.68
54369;BME280;40266;52.434;17.056;2022-12-16T14:03:02;100465.30;;;-3.89;88.77
54369;BME280;40266;52.434;17.056;2022-12-16T14:06:12;100466.15;;;-3.89;88.76
54369;BME280;40266;52.434;17.056;2022-12-16T14:09:43;100469.36;;;-3.89;88.74
54369;BME280;40266;52.434;17.056;2022-12-16T14:16:14;100481.11;;;-3.86;88.93
54369;BME280;40266;52.434;17.056;2022-12-16T14:26:18;100487.02;;;-3.92;88.67
54369;BME280;40266;52.434;17.056;2022-12-16T14:29:22;100486.97;;;-3.97;88.44
54369;BME280;40266;52.434;17.056;2022-12-16T14:32:31;100488.70;;;-4.07;88.52
54369;BME280;40266;52.434;17.056;2022-12-16T14:35:34;100492.05;;;-4.12;88.57
54369;BME280;40266;52.434;17.056;2022-12-16T14:38:46;100503.14;;;-4.21;88.39
54369;BME280;40266;52.434;17.056;2022-12-16T14:41:50;100507.29;;;-4.28;88.50
54369;BME280;40266;52.434;17.056;2022-12-16T14:44:51;100508.64;;;-4.32;88.52
54369;BME280;40266;52.434;17.056;2022-12-16T14:47:54;100508.77;;;-4.38;88.49
54369;BME280;40266;52.434;17.056;2022-12-16T14:50:56;100509.67;;;-4.45;88.54
54369;BME280;40266;52.434;17.056;2022-12-16T14:57:19;100525.09;;;-4.60;88.76
54369;BME280;40266;52.434;17.056;2022-12-16T15:00:23;100531.38;;;-4.65;88.80
54369;BME280;40266;52.434;17.056;2022-12-16T15:03:33;100534.85;;;-4.71;88.84
54369;BME280;40266;52.434;17.056;2022-12-16T15:06:40;100535.60;;;-4.78;88.92
54369;BME280;40266;52.434;17.056;2022-12-16T15:09:46;100546.90;;;-4.84;88.90
54369;BME280;40266;52.434;17.056;2022-12-16T15:12:49;100543.98;;;-4.89;89.10
54369;BME280;40266;52.434;17.056;2022-12-16T15:15:51;100548.25;;;-4.93;89.16
54369;BME280;40266;52.434;17.056;2022-12-16T15:18:59;100552.83;;;-4.97;89.21
54369;BME280;40266;52.434;17.056;2022-12-16T15:22:02;100553.52;;;-5.01;89.15
54369;BME280;40266;52.434;17.056;2022-12-16T15:25:04;100564.11;;;-5.04;89.23
54369;BME280;40266;52.434;17.056;2022-12-16T15:28:37;100566.02;;;-5.07;89.42
54369;BME280;40266;52.434;17.056;2022-12-16T15:31:39;100570.66;;;-5.10;89.42
54369;BME280;40266;52.434;17.056;2022-12-16T15:34:46;100576.17;;;-5.13;89.55
54369;BME280;40266;52.434;17.056;2022-12-16T15:37:48;100580.77;;;-5.16;89.73
54369;BME280;40266;52.434;17.056;2022-12-16T15:40:50;100585.27;;;-5.14;89.81
54369;BME280;40266;52.434;17.056;2022-12-16T15:44:00;100580.98;;;-5.16;89.76
54369;BME280;40266;52.434;17.056;2022-12-16T15:47:02;100578.50;;;-5.14;90.06
54369;BME280;40266;52.434;17.056;2022-12-16T15:50:05;100580.61;;;-5.16;89.87
54369;BME280;40266;52.434;17.056;2022-12-16T15:53:37;100586.57;;;-5.16;89.86
54369;BME280;40266;52.434;17.056;2022-12-16T15:56:43;100586.02;;;-5.17;90.14
54369;BME280;40266;52.434;17.056;2022-12-16T15:59:57;100586.46;;;-5.19;90.09
54369;BME280;40266;52.434;17.056;2022-12-16T16:03:02;100591.32;;;-5.20;90.14
54369;BME280;40266;52.434;17.056;2022-12-16T16:06:24;100598.77;;;-5.21;90.09
54369;BME280;40266;52.434;17.056;2022-12-16T16:09:28;100601.64;;;-5.21;90.37
54369;BME280;40266;52.434;17.056;2022-12-16T16:12:31;100607.67;;;-5.20;90.41
54369;BME280;40266;52.434;17.056;2022-12-16T16:15:32;100607.34;;;-5.20;90.33
54369;BME280;40266;52.434;17.056;2022-12-16T16:18:34;100604.54;;;-5.18;90.48
54369;BME280;40266;52.434;17.056;2022-12-16T16:21:36;100601.98;;;-5.18;90.47
54369;BME280;40266;52.434;17.056;2022-12-16T16:24:37;100603.64;;;-5.19;90.38
54369;BME280;40266;52.434;17.056;2022-12-16T16:27:39;100611.46;;;-5.19;90.57
54369;BME280;40266;52.434;17.056;2022-12-16T16:30:41;100615.89;;;-5.19;90.54
54369;BME280;40266;52.434;17.056;2022-12-16T16:33:42;100624.60;;;-5.19;90.82
54369;BME280;40266;52.434;17.056;2022-12-16T16:36:46;100628.52;;;-5.18;90.58
54369;BME280;40266;52.434;17.056;2022-12-16T16:39:57;100634.73;;;-5.17;90.85
54369;BME280;40266;52.434;17.056;2022-12-16T16:42:59;100644.99;;;-5.16;90.81
54369;BME280;40266;52.434;17.056;2022-12-16T16:46:00;100645.49;;;-5.16;90.69
54369;BME280;40266;52.434;17.056;2022-12-16T16:49:02;100645.24;;;-5.18;90.77